sensor_id;sensor_type;location;lat;lon;timestamp;P1;durP1;ratioP1;P2;durP2;ratioP2
23814;SDS011;12088;53.078;8.720;2023-11-22T00:00:09;16.17;;;8.80;;
23814;SDS011;12088;53.078;8.720;2023-11-22T00:02:35;14.57;;;8.50;;
23814;SDS011;12088;53.078;8.720;2023-11-22T00:05:02;15.43;;;7.87;;
23814;SDS011;12088;53.078;8.720;2023-11-22T00:07:30;17.07;;;9.40;;
23814;SDS011;12088;53.078;8.720;2023-11-22T00:09:56;15.67;;;8.90;;
23814;SDS011;12088;53.078;8.720;2023-11-22T00:12:23;16.67;;;9.03;;
23814;SDS011;12088;53.078;8.720;2023-11-22T00:14:49;15.93;;;8.80;;
23814;SDS011;12088;53.078;8.720;2023-11-22T00:17:16;15.53;;;8.20;;
23814;SDS011;12088;53.078;8.720;2023-11-22T00:19:42;12.50;;;8.13;;
23814;SDS011;12088;53.078;8.720;2023-11-22T00:22:09;14.57;;;8.47;;
23814;SDS011;12088;53.078;8.720;2023-11-22T00:24:39;14.33;;;8.37;;
23814;SDS011;12088;53.078;8.720;2023-11-22T00:27:06;13.60;;;7.77;;
23814;SDS011;12088;53.078;8.720;2023-11-22T00:29:32;17.67;;;8.47;;
23814;SDS011;12088;53.078;8.720;2023-11-22T00:31:58;15.10;;;8.70;;
23814;SDS011;12088;53.078;8.720;2023-11-22T00:34:25;13.60;;;8.10;;
23814;SDS011;12088;53.078;8.720;2023-11-22T00:36:51;15.60;;;8.47;;
23814;SDS011;12088;53.078;8.720;2023-11-22T00:39:17;13.60;;;7.97;;
23814;SDS011;12088;53.078;8.720;2023-11-22T00:41:43;14.37;;;8.43;;
23814;SDS011;12088;53.078;8.720;2023-11-22T00:44:09;13.80;;;8.07;;
23814;SDS011;12088;53.078;8.720;2023-11-22T00:46:35;14.20;;;8.40;;
23814;SDS011;12088;53.078;8.720;2023-11-22T00:49:04;15.60;;;8.30;;
23814;SDS011;12088;53.078;8.720;2023-11-22T00:51:31;14.37;;;8.77;;
23814;SDS011;12088;53.078;8.720;2023-11-22T00:54:00;13.37;;;7.87;;
23814;SDS011;12088;53.078;8.720;2023-11-22T00:56:26;18.00;;;8.63;;
23814;SDS011;12088;53.078;8.720;2023-11-22T00:58:53;15.87;;;8.50;;
23814;SDS011;12088;53.078;8.720;2023-11-22T01:01:20;15.77;;;8.67;;
23814;SDS011;12088;53.078;8.720;2023-11-22T01:03:46;17.40;;;9.13;;
23814;SDS011;12088;53.078;8.720;2023-11-22T01:06:12;16.10;;;8.50;;
23814;SDS011;12088;53.078;8.720;2023-11-22T01:08:38;18.23;;;9.30;;
23814;SDS011;12088;53.078;8.720;2023-11-22T01:11:04;16.20;;;9.00;;
23814;SDS011;12088;53.078;8.720;2023-11-22T01:13:33;15.73;;;8.70;;
23814;SDS011;12088;53.078;8.720;2023-11-22T01:16:05;20.40;;;9.63;;
23814;SDS011;12088;53.078;8.720;2023-11-22T01:18:31;16.13;;;9.43;;
23814;SDS011;12088;53.078;8.720;2023-11-22T01:20:57;16.17;;;10.20;;
23814;SDS011;12088;53.078;8.720;2023-11-22T01:23:23;18.03;;;9.97;;
23814;SDS011;12088;53.078;8.720;2023-11-22T01:25:49;17.37;;;9.70;;
23814;SDS011;12088;53.078;8.720;2023-11-22T01:28:15;18.77;;;9.83;;
23814;SDS011;12088;53.078;8.720;2023-11-22T01:30:42;18.77;;;10.23;;
23814;SDS011;12088;53.078;8.720;2023-11-22T01:33:12;19.03;;;9.73;;
23814;SDS011;12088;53.078;8.720;2023-11-22T01:35:38;18.43;;;10.17;;
23814;SDS011;12088;53.078;8.720;2023-11-22T01:38:04;21.03;;;10.17;;
23814;SDS011;12088;53.078;8.720;2023-11-22T01:40:30;13.10;;;8.90;;
23814;SDS011;12088;53.078;8.720;2023-11-22T01:43:00;16.40;;;9.30;;
23814;SDS011;12088;53.078;8.720;2023-11-22T01:45:27;14.27;;;8.30;;
23814;SDS011;12088;53.078;8.720;2023-11-22T01:47:54;13.73;;;8.83;;
23814;SDS011;12088;53.078;8.720;2023-11-22T01:50:21;15.13;;;8.67;;
23814;SDS011;12088;53.078;8.720;2023-11-22T01:52:47;20.33;;;9.77;;
23814;SDS011;12088;53.078;8.720;2023-11-22T01:55:13;19.97;;;10.33;;
23814;SDS011;12088;53.078;8.720;2023-11-22T01:57:41;21.90;;;10.90;;
23814;SDS011;12088;53.078;8.720;2023-11-22T02:00:07;21.60;;;11.40;;
23814;SDS011;12088;53.078;8.720;2023-11-22T02:02:34;22.57;;;12.03;;
23814;SDS011;12088;53.078;8.720;2023-11-22T02:05:00;26.40;;;11.93;;
23814;SDS011;12088;53.078;8.720;2023-11-22T02:07:29;19.50;;;11.50;;
23814;SDS011;12088;53.078;8.720;2023-11-22T02:09:56;20.80;;;10.97;;
23814;SDS011;12088;53.078;8.720;2023-11-22T02:12:22;21.83;;;11.47;;
23814;SDS011;12088;53.078;8.720;2023-11-22T02:14:48;19.13;;;10.70;;
23814;SDS011;12088;53.078;8.720;2023-11-22T02:17:15;19.53;;;11.63;;
23814;SDS011;12088;53.078;8.720;2023-11-22T02:19:42;19.23;;;11.03;;
23814;SDS011;12088;53.078;8.720;2023-11-22T02:22:08;17.27;;;9.63;;
23814;SDS011;12088;53.078;8.720;2023-11-22T02:24:34;18.33;;;9.90;;
23814;SDS011;12088;53.078;8.720;2023-11-22T02:27:00;17.40;;;10.00;;
23814;SDS011;12088;53.078;8.720;2023-11-22T02:29:26;24.17;;;10.70;;
23814;SDS011;12088;53.078;8.720;2023-11-22T02:31:53;15.80;;;9.60;;
23814;SDS011;12088;53.078;8.720;2023-11-22T02:34:19;13.33;;;8.40;;
23814;SDS011;12088;53.078;8.720;2023-11-22T02:36:45;14.63;;;9.03;;
23814;SDS011;12088;53.078;8.720;2023-11-22T02:39:11;18.03;;;10.10;;
23814;SDS011;12088;53.078;8.720;2023-11-22T02:41:39;15.13;;;8.87;;
23814;SDS011;12088;53.078;8.720;2023-11-22T02:44:05;16.63;;;8.63;;
23814;SDS011;12088;53.078;8.720;2023-11-22T02:46:34;13.17;;;8.40;;
23814;SDS011;12088;53.078;8.720;2023-11-22T02:48:59;14.57;;;9.20;;
23814;SDS011;12088;53.078;8.720;2023-11-22T02:51:26;13.73;;;8.77;;
23814;SDS011;12088;53.078;8.720;2023-11-22T02:53:53;19.33;;;10.00;;
23814;SDS011;12088;53.078;8.720;2023-11-22T02:56:19;17.40;;;9.33;;
23814;SDS011;12088;53.078;8.720;2023-11-22T02:58:46;17.17;;;9.53;;
23814;SDS011;12088;53.078;8.720;2023-11-22T03:01:12;16.90;;;8.90;;
23814;SDS011;12088;53.078;8.720;2023-11-22T03:03:38;15.43;;;8.20;;
23814;SDS011;12088;53.078;8.720;2023-11-22T03:06:05;17.30;;;9.17;;
23814;SDS011;12088;53.078;8.720;2023-11-22T03:08:31;14.70;;;8.83;;
23814;SDS011;12088;53.078;8.720;2023-11-22T03:10:57;15.20;;;8.30;;
23814;SDS011;12088;53.078;8.720;2023-11-22T03:13:24;12.90;;;8.40;;
23814;SDS011;12088;53.078;8.720;2023-11-22T03:15:50;13.73;;;7.70;;
23814;SDS011;12088;53.078;8.720;2023-11-22T03:18:17;16.07;;;7.93;;
23814;SDS011;12088;53.078;8.720;2023-11-22T03:20:43;9.87;;;7.17;;
23814;SDS011;12088;53.078;8.720;2023-11-22T03:23:09;14.70;;;8.00;;
23814;SDS011;12088;53.078;8.720;2023-11-22T03:25:38;12.10;;;7.67;;
23814;SDS011;12088;53.078;8.720;2023-11-22T03:28:04;14.77;;;8.67;;
23814;SDS011;12088;53.078;8.720;2023-11-22T03:30:29;13.60;;;8.23;;
23814;SDS011;12088;53.078;8.720;2023-11-22T03:32:56;16.93;;;8.90;;
23814;SDS011;12088;53.078;8.720;2023-11-22T03:35:22;15.13;;;8.77;;
23814;SDS011;12088;53.078;8.720;2023-11-22T03:37:48;14.63;;;9.13;;
23814;SDS011;12088;53.078;8.720;2023-11-22T03:40:14;12.67;;;8.27;;
23814;SDS011;12088;53.078;8.720;2023-11-22T03:42:40;16.73;;;8.77;;
23814;SDS011;12088;53.078;8.720;2023-11-22T03:45:06;11.83;;;7.87;;
23814;SDS011;12088;53.078;8.720;2023-11-22T03:47:32;13.47;;;8.03;;
23814;SDS011;12088;53.078;8.720;2023-11-22T03:49:59;15.17;;;8.90;;
23814;SDS011;12088;53.078;8.720;2023-11-22T03:52:25;13.33;;;8.23;;
23814;SDS011;12088;53.078;8.720;2023-11-22T03:54:54;14.07;;;8.23;;
23814;SDS011;12088;53.078;8.720;2023-11-22T03:57:22;15.53;;;9.10;;
23814;SDS011;12088;53.078;8.720;2023-11-22T03:59:48;20.17;;;11.17;;
23814;SDS011;12088;53.078;8.720;2023-11-22T04:02:14;25.67;;;12.40;;
23814;SDS011;12088;53.078;8.720;2023-11-22T04:04:40;20.47;;;11.10;;
23814;SDS011;12088;53.078;8.720;2023-11-22T04:07:06;18.50;;;10.67;;
23814;SDS011;12088;53.078;8.720;2023-11-22T04:09:33;16.50;;;10.17;;
23814;SDS011;12088;53.078;8.720;2023-11-22T04:11:59;18.70;;;10.07;;
23814;SDS011;12088;53.078;8.720;2023-11-22T04:14:25;31.43;;;11.07;;
23814;SDS011;12088;53.078;8.720;2023-11-22T04:16:52;30.23;;;10.83;;
23814;SDS011;12088;53.078;8.720;2023-11-22T04:19:18;19.07;;;10.03;;
23814;SDS011;12088;53.078;8.720;2023-11-22T04:21:44;20.07;;;10.50;;
23814;SDS011;12088;53.078;8.720;2023-11-22T04:24:10;22.60;;;10.50;;
23814;SDS011;12088;53.078;8.720;2023-11-22T04:26:37;432.57;;;40.43;;
23814;SDS011;12088;53.078;8.720;2023-11-22T04:29:03;370.10;;;27.83;;
23814;SDS011;12088;53.078;8.720;2023-11-22T04:31:29;197.10;;;16.40;;
23814;SDS011;12088;53.078;8.720;2023-11-22T04:33:55;132.60;;;14.40;;
23814;SDS011;12088;53.078;8.720;2023-11-22T04:36:22;121.80;;;14.20;;
23814;SDS011;12088;53.078;8.720;2023-11-22T04:38:48;202.37;;;18.20;;
23814;SDS011;12088;53.078;8.720;2023-11-22T04:41:15;119.97;;;13.30;;
23814;SDS011;12088;53.078;8.720;2023-11-22T04:43:41;199.53;;;22.63;;
23814;SDS011;12088;53.078;8.720;2023-11-22T04:46:07;163.60;;;14.80;;
23814;SDS011;12088;53.078;8.720;2023-11-22T04:48:33;91.03;;;10.00;;
23814;SDS011;12088;53.078;8.720;2023-11-22T04:50:59;65.33;;;9.10;;
23814;SDS011;12088;53.078;8.720;2023-11-22T04:53:25;183.00;;;14.73;;
23814;SDS011;12088;53.078;8.720;2023-11-22T04:55:52;120.80;;;11.73;;
23814;SDS011;12088;53.078;8.720;2023-11-22T04:58:18;100.30;;;11.37;;
23814;SDS011;12088;53.078;8.720;2023-11-22T05:00:44;10.03;;;6.33;;
23814;SDS011;12088;53.078;8.720;2023-11-22T05:03:10;8.23;;;6.23;;
23814;SDS011;12088;53.078;8.720;2023-11-22T05:05:36;9.70;;;6.57;;
23814;SDS011;12088;53.078;8.720;2023-11-22T05:08:02;8.63;;;5.80;;
23814;SDS011;12088;53.078;8.720;2023-11-22T05:10:28;10.60;;;6.90;;
23814;SDS011;12088;53.078;8.720;2023-11-22T05:12:54;10.77;;;7.47;;
23814;SDS011;12088;53.078;8.720;2023-11-22T05:15:24;14.63;;;8.90;;
23814;SDS011;12088;53.078;8.720;2023-11-22T05:17:50;23.73;;;13.40;;
23814;SDS011;12088;53.078;8.720;2023-11-22T05:20:16;18.90;;;11.27;;
23814;SDS011;12088;53.078;8.720;2023-11-22T05:22:42;25.97;;;11.23;;
23814;SDS011;12088;53.078;8.720;2023-11-22T05:25:08;155.43;;;17.23;;
23814;SDS011;12088;53.078;8.720;2023-11-22T05:27:34;367.07;;;27.90;;
23814;SDS011;12088;53.078;8.720;2023-11-22T05:30:00;476.33;;;38.53;;
23814;SDS011;12088;53.078;8.720;2023-11-22T05:32:27;201.30;;;17.93;;
23814;SDS011;12088;53.078;8.720;2023-11-22T05:34:54;366.13;;;22.60;;
23814;SDS011;12088;53.078;8.720;2023-11-22T05:37:20;355.20;;;27.37;;
23814;SDS011;12088;53.078;8.720;2023-11-22T05:39:46;346.83;;;24.00;;
23814;SDS011;12088;53.078;8.720;2023-11-22T05:42:12;224.33;;;19.40;;
23814;SDS011;12088;53.078;8.720;2023-11-22T05:44:38;202.73;;;16.87;;
23814;SDS011;12088;53.078;8.720;2023-11-22T05:47:04;170.40;;;17.93;;
23814;SDS011;12088;53.078;8.720;2023-11-22T05:49:30;169.47;;;16.03;;
23814;SDS011;12088;53.078;8.720;2023-11-22T05:51:56;42.47;;;10.10;;
23814;SDS011;12088;53.078;8.720;2023-11-22T05:54:22;33.43;;;12.37;;
23814;SDS011;12088;53.078;8.720;2023-11-22T05:56:48;23.00;;;10.93;;
23814;SDS011;12088;53.078;8.720;2023-11-22T05:59:14;20.30;;;10.10;;
23814;SDS011;12088;53.078;8.720;2023-11-22T06:01:40;14.27;;;8.80;;
23814;SDS011;12088;53.078;8.720;2023-11-22T06:04:06;11.47;;;7.70;;
23814;SDS011;12088;53.078;8.720;2023-11-22T06:06:34;10.97;;;6.57;;
23814;SDS011;12088;53.078;8.720;2023-11-22T06:09:00;13.10;;;6.13;;
23814;SDS011;12088;53.078;8.720;2023-11-22T06:11:26;8.17;;;5.10;;
23814;SDS011;12088;53.078;8.720;2023-11-22T06:13:52;11.80;;;6.33;;
23814;SDS011;12088;53.078;8.720;2023-11-22T06:16:18;15.60;;;8.73;;
23814;SDS011;12088;53.078;8.720;2023-11-22T06:18:44;10.57;;;6.90;;
23814;SDS011;12088;53.078;8.720;2023-11-22T06:21:10;11.70;;;7.67;;
23814;SDS011;12088;53.078;8.720;2023-11-22T06:23:36;12.67;;;7.60;;
23814;SDS011;12088;53.078;8.720;2023-11-22T06:26:02;20.17;;;9.67;;
23814;SDS011;12088;53.078;8.720;2023-11-22T06:28:28;13.07;;;7.97;;
23814;SDS011;12088;53.078;8.720;2023-11-22T06:30:54;18.57;;;9.53;;
23814;SDS011;12088;53.078;8.720;2023-11-22T06:33:20;19.77;;;11.00;;
23814;SDS011;12088;53.078;8.720;2023-11-22T06:35:46;19.50;;;10.80;;
23814;SDS011;12088;53.078;8.720;2023-11-22T06:38:12;19.13;;;11.77;;
23814;SDS011;12088;53.078;8.720;2023-11-22T06:40:38;22.97;;;11.67;;
23814;SDS011;12088;53.078;8.720;2023-11-22T06:43:04;26.70;;;11.00;;
23814;SDS011;12088;53.078;8.720;2023-11-22T06:45:31;20.70;;;11.53;;
23814;SDS011;12088;53.078;8.720;2023-11-22T06:47:57;25.00;;;12.63;;
23814;SDS011;12088;53.078;8.720;2023-11-22T06:50:23;48.97;;;20.40;;
23814;SDS011;12088;53.078;8.720;2023-11-22T06:52:50;46.70;;;21.47;;
23814;SDS011;12088;53.078;8.720;2023-11-22T06:55:17;51.07;;;24.30;;
23814;SDS011;12088;53.078;8.720;2023-11-22T06:57:44;41.30;;;18.80;;
23814;SDS011;12088;53.078;8.720;2023-11-22T07:00:10;34.10;;;17.97;;
23814;SDS011;12088;53.078;8.720;2023-11-22T07:02:37;30.20;;;15.70;;
23814;SDS011;12088;53.078;8.720;2023-11-22T07:05:04;26.83;;;14.50;;
23814;SDS011;12088;53.078;8.720;2023-11-22T07:07:34;27.87;;;15.83;;
23814;SDS011;12088;53.078;8.720;2023-11-22T07:10:00;25.07;;;14.17;;
23814;SDS011;12088;53.078;8.720;2023-11-22T07:12:26;27.57;;;15.23;;
23814;SDS011;12088;53.078;8.720;2023-11-22T07:14:52;27.97;;;14.07;;
23814;SDS011;12088;53.078;8.720;2023-11-22T07:17:18;23.67;;;14.03;;
23814;SDS011;12088;53.078;8.720;2023-11-22T07:19:44;26.87;;;14.87;;
23814;SDS011;12088;53.078;8.720;2023-11-22T07:22:13;23.90;;;14.57;;
23814;SDS011;12088;53.078;8.720;2023-11-22T07:24:44;25.77;;;14.80;;
23814;SDS011;12088;53.078;8.720;2023-11-22T07:27:14;25.20;;;14.33;;
23814;SDS011;12088;53.078;8.720;2023-11-22T07:29:40;23.53;;;13.67;;
23814;SDS011;12088;53.078;8.720;2023-11-22T07:32:06;26.53;;;14.43;;
23814;SDS011;12088;53.078;8.720;2023-11-22T07:34:33;26.63;;;13.83;;
23814;SDS011;12088;53.078;8.720;2023-11-22T07:37:00;25.37;;;13.80;;
23814;SDS011;12088;53.078;8.720;2023-11-22T07:39:26;27.37;;;15.70;;
23814;SDS011;12088;53.078;8.720;2023-11-22T07:41:52;28.13;;;14.33;;
23814;SDS011;12088;53.078;8.720;2023-11-22T07:44:19;25.30;;;14.27;;
23814;SDS011;12088;53.078;8.720;2023-11-22T07:46:46;23.70;;;12.57;;
23814;SDS011;12088;53.078;8.720;2023-11-22T07:49:12;23.50;;;13.23;;
23814;SDS011;12088;53.078;8.720;2023-11-22T07:51:39;23.07;;;12.77;;
23814;SDS011;12088;53.078;8.720;2023-11-22T07:54:05;25.57;;;14.50;;
23814;SDS011;12088;53.078;8.720;2023-11-22T07:56:31;24.67;;;14.00;;
23814;SDS011;12088;53.078;8.720;2023-11-22T07:58:57;22.57;;;13.03;;
23814;SDS011;12088;53.078;8.720;2023-11-22T08:01:24;19.93;;;12.53;;
23814;SDS011;12088;53.078;8.720;2023-11-22T08:03:53;22.60;;;14.43;;
23814;SDS011;12088;53.078;8.720;2023-11-22T08:06:20;21.80;;;13.27;;
23814;SDS011;12088;53.078;8.720;2023-11-22T08:08:47;21.73;;;13.43;;
23814;SDS011;12088;53.078;8.720;2023-11-22T08:11:13;20.13;;;12.43;;
23814;SDS011;12088;53.078;8.720;2023-11-22T08:13:43;20.23;;;12.77;;
23814;SDS011;12088;53.078;8.720;2023-11-22T08:16:10;20.23;;;12.50;;
23814;SDS011;12088;53.078;8.720;2023-11-22T08:18:38;17.87;;;12.13;;
23814;SDS011;12088;53.078;8.720;2023-11-22T08:21:05;23.13;;;14.27;;
23814;SDS011;12088;53.078;8.720;2023-11-22T08:23:31;22.33;;;13.37;;
23814;SDS011;12088;53.078;8.720;2023-11-22T08:26:00;21.20;;;13.30;;
23814;SDS011;12088;53.078;8.720;2023-11-22T08:28:27;20.70;;;12.53;;
23814;SDS011;12088;53.078;8.720;2023-11-22T08:30:54;24.17;;;14.13;;
23814;SDS011;12088;53.078;8.720;2023-11-22T08:33:21;29.47;;;13.97;;
23814;SDS011;12088;53.078;8.720;2023-11-22T08:35:47;23.90;;;13.67;;
23814;SDS011;12088;53.078;8.720;2023-11-22T08:38:17;19.50;;;13.43;;
23814;SDS011;12088;53.078;8.720;2023-11-22T08:40:44;20.20;;;11.87;;
23814;SDS011;12088;53.078;8.720;2023-11-22T08:43:10;21.63;;;13.30;;
23814;SDS011;12088;53.078;8.720;2023-11-22T08:45:36;17.50;;;10.60;;
23814;SDS011;12088;53.078;8.720;2023-11-22T08:48:02;21.07;;;12.47;;
23814;SDS011;12088;53.078;8.720;2023-11-22T08:50:29;22.00;;;14.10;;
23814;SDS011;12088;53.078;8.720;2023-11-22T08:52:55;18.07;;;12.43;;
23814;SDS011;12088;53.078;8.720;2023-11-22T08:55:23;20.27;;;12.77;;
23814;SDS011;12088;53.078;8.720;2023-11-22T08:57:50;19.80;;;12.40;;
23814;SDS011;12088;53.078;8.720;2023-11-22T09:00:16;21.27;;;13.40;;
23814;SDS011;12088;53.078;8.720;2023-11-22T09:02:47;19.40;;;12.80;;
23814;SDS011;12088;53.078;8.720;2023-11-22T09:05:14;19.33;;;11.87;;
23814;SDS011;12088;53.078;8.720;2023-11-22T09:07:42;18.93;;;12.20;;
23814;SDS011;12088;53.078;8.720;2023-11-22T09:10:09;17.57;;;11.43;;
23814;SDS011;12088;53.078;8.720;2023-11-22T09:12:37;18.50;;;12.00;;
23814;SDS011;12088;53.078;8.720;2023-11-22T09:15:07;16.47;;;10.63;;
23814;SDS011;12088;53.078;8.720;2023-11-22T09:17:35;14.27;;;9.67;;
23814;SDS011;12088;53.078;8.720;2023-11-22T09:20:01;19.63;;;10.83;;
23814;SDS011;12088;53.078;8.720;2023-11-22T09:22:28;14.67;;;10.10;;
23814;SDS011;12088;53.078;8.720;2023-11-22T09:24:54;16.03;;;9.87;;
23814;SDS011;12088;53.078;8.720;2023-11-22T09:27:20;15.37;;;9.37;;
23814;SDS011;12088;53.078;8.720;2023-11-22T09:29:47;12.23;;;8.20;;
23814;SDS011;12088;53.078;8.720;2023-11-22T09:32:14;12.83;;;9.53;;
23814;SDS011;12088;53.078;8.720;2023-11-22T09:34:40;16.03;;;8.90;;
23814;SDS011;12088;53.078;8.720;2023-11-22T09:37:09;14.60;;;9.13;;
23814;SDS011;12088;53.078;8.720;2023-11-22T09:39:35;13.97;;;9.47;;
23814;SDS011;12088;53.078;8.720;2023-11-22T09:42:01;15.43;;;10.73;;
23814;SDS011;12088;53.078;8.720;2023-11-22T09:44:27;12.90;;;9.80;;
23814;SDS011;12088;53.078;8.720;2023-11-22T09:46:53;14.43;;;9.87;;
23814;SDS011;12088;53.078;8.720;2023-11-22T09:49:22;11.87;;;8.50;;
23814;SDS011;12088;53.078;8.720;2023-11-22T09:51:51;13.57;;;9.53;;
23814;SDS011;12088;53.078;8.720;2023-11-22T09:54:20;12.70;;;8.70;;
23814;SDS011;12088;53.078;8.720;2023-11-22T09:56:54;14.67;;;8.97;;
23814;SDS011;12088;53.078;8.720;2023-11-22T09:59:20;13.53;;;10.40;;
23814;SDS011;12088;53.078;8.720;2023-11-22T10:01:48;11.40;;;8.83;;
23814;SDS011;12088;53.078;8.720;2023-11-22T10:04:14;16.10;;;9.77;;
23814;SDS011;12088;53.078;8.720;2023-11-22T10:06:40;13.97;;;8.50;;
23814;SDS011;12088;53.078;8.720;2023-11-22T10:09:11;12.67;;;9.10;;
23814;SDS011;12088;53.078;8.720;2023-11-22T10:11:39;13.70;;;8.90;;
23814;SDS011;12088;53.078;8.720;2023-11-22T10:14:08;14.23;;;9.00;;
23814;SDS011;12088;53.078;8.720;2023-11-22T10:16:34;13.33;;;7.63;;
23814;SDS011;12088;53.078;8.720;2023-11-22T10:19:00;11.50;;;8.13;;
23814;SDS011;12088;53.078;8.720;2023-11-22T10:21:27;9.63;;;6.10;;
23814;SDS011;12088;53.078;8.720;2023-11-22T10:24:04;10.30;;;7.57;;
23814;SDS011;12088;53.078;8.720;2023-11-22T10:26:34;12.23;;;6.73;;
23814;SDS011;12088;53.078;8.720;2023-11-22T10:29:00;8.83;;;6.17;;
23814;SDS011;12088;53.078;8.720;2023-11-22T10:31:27;9.60;;;6.53;;
23814;SDS011;12088;53.078;8.720;2023-11-22T10:33:54;8.03;;;5.20;;
23814;SDS011;12088;53.078;8.720;2023-11-22T10:36:23;10.30;;;6.00;;
23814;SDS011;12088;53.078;8.720;2023-11-22T10:38:49;8.67;;;6.53;;
23814;SDS011;12088;53.078;8.720;2023-11-22T10:41:16;7.43;;;5.40;;
23814;SDS011;12088;53.078;8.720;2023-11-22T10:43:42;6.60;;;5.03;;
23814;SDS011;12088;53.078;8.720;2023-11-22T10:46:09;6.60;;;4.60;;
23814;SDS011;12088;53.078;8.720;2023-11-22T10:48:35;6.83;;;4.63;;
23814;SDS011;12088;53.078;8.720;2023-11-22T10:51:02;6.23;;;5.60;;
23814;SDS011;12088;53.078;8.720;2023-11-22T10:53:32;11.27;;;4.57;;
23814;SDS011;12088;53.078;8.720;2023-11-22T10:56:05;8.43;;;4.23;;
23814;SDS011;12088;53.078;8.720;2023-11-22T10:58:36;6.20;;;4.33;;
23814;SDS011;12088;53.078;8.720;2023-11-22T11:01:05;7.03;;;5.67;;
23814;SDS011;12088;53.078;8.720;2023-11-22T11:03:31;8.37;;;4.40;;
23814;SDS011;12088;53.078;8.720;2023-11-22T11:06:03;4.90;;;4.13;;
23814;SDS011;12088;53.078;8.720;2023-11-22T11:08:30;6.53;;;3.90;;
23814;SDS011;12088;53.078;8.720;2023-11-22T11:10:56;4.93;;;3.80;;
23814;SDS011;12088;53.078;8.720;2023-11-22T11:13:23;6.77;;;4.60;;
23814;SDS011;12088;53.078;8.720;2023-11-22T11:15:50;7.43;;;4.30;;
23814;SDS011;12088;53.078;8.720;2023-11-22T11:18:17;5.70;;;3.77;;
23814;SDS011;12088;53.078;8.720;2023-11-22T11:20:52;4.67;;;3.50;;
23814;SDS011;12088;53.078;8.720;2023-11-22T11:23:22;4.83;;;3.90;;
23814;SDS011;12088;53.078;8.720;2023-11-22T11:25:56;4.63;;;3.97;;
23814;SDS011;12088;53.078;8.720;2023-11-22T11:28:22;8.80;;;3.37;;
23814;SDS011;12088;53.078;8.720;2023-11-22T11:30:52;3.97;;;3.23;;
23814;SDS011;12088;53.078;8.720;2023-11-22T11:33:32;4.67;;;4.00;;
23814;SDS011;12088;53.078;8.720;2023-11-22T11:35:58;4.10;;;3.53;;
23814;SDS011;12088;53.078;8.720;2023-11-22T11:38:32;5.43;;;3.10;;
23814;SDS011;12088;53.078;8.720;2023-11-22T11:41:06;3.57;;;3.27;;
23814;SDS011;12088;53.078;8.720;2023-11-22T11:43:45;4.07;;;2.67;;
23814;SDS011;12088;53.078;8.720;2023-11-22T11:46:11;4.40;;;4.00;;
23814;SDS011;12088;53.078;8.720;2023-11-22T11:48:37;5.80;;;2.87;;
23814;SDS011;12088;53.078;8.720;2023-11-22T11:51:04;3.70;;;3.03;;
23814;SDS011;12088;53.078;8.720;2023-11-22T11:53:31;3.93;;;2.80;;
23814;SDS011;12088;53.078;8.720;2023-11-22T11:55:58;2.63;;;2.20;;
23814;SDS011;12088;53.078;8.720;2023-11-22T11:58:24;3.13;;;2.73;;
23814;SDS011;12088;53.078;8.720;2023-11-22T12:00:51;2.33;;;1.93;;
23814;SDS011;12088;53.078;8.720;2023-11-22T12:03:17;2.53;;;1.87;;
23814;SDS011;12088;53.078;8.720;2023-11-22T12:05:46;2.47;;;2.03;;
23814;SDS011;12088;53.078;8.720;2023-11-22T12:08:14;2.43;;;2.10;;
23814;SDS011;12088;53.078;8.720;2023-11-22T12:10:42;3.67;;;2.33;;
23814;SDS011;12088;53.078;8.720;2023-11-22T12:13:08;3.30;;;1.90;;
23814;SDS011;12088;53.078;8.720;2023-11-22T12:15:34;2.60;;;2.00;;
23814;SDS011;12088;53.078;8.720;2023-11-22T12:18:03;4.40;;;2.70;;
23814;SDS011;12088;53.078;8.720;2023-11-22T12:20:30;4.47;;;2.40;;
23814;SDS011;12088;53.078;8.720;2023-11-22T12:22:59;5.43;;;2.83;;
23814;SDS011;12088;53.078;8.720;2023-11-22T12:25:32;3.03;;;2.10;;
23814;SDS011;12088;53.078;8.720;2023-11-22T12:27:58;2.80;;;2.40;;
23814;SDS011;12088;53.078;8.720;2023-11-22T12:30:36;2.60;;;2.40;;
23814;SDS011;12088;53.078;8.720;2023-11-22T12:33:08;1.97;;;1.80;;
23814;SDS011;12088;53.078;8.720;2023-11-22T12:35:34;6.17;;;2.57;;
23814;SDS011;12088;53.078;8.720;2023-11-22T12:38:00;2.87;;;1.80;;
23814;SDS011;12088;53.078;8.720;2023-11-22T12:40:27;1.93;;;1.70;;
23814;SDS011;12088;53.078;8.720;2023-11-22T12:42:56;2.37;;;2.00;;
23814;SDS011;12088;53.078;8.720;2023-11-22T12:45:22;2.20;;;1.97;;
23814;SDS011;12088;53.078;8.720;2023-11-22T12:47:52;2.43;;;2.23;;
23814;SDS011;12088;53.078;8.720;2023-11-22T12:52:57;5.90;;;5.60;;
23814;SDS011;12088;53.078;8.720;2023-11-22T12:55:23;2.60;;;1.90;;
23814;SDS011;12088;53.078;8.720;2023-11-22T12:57:56;3.63;;;2.10;;
23814;SDS011;12088;53.078;8.720;2023-11-22T13:00:23;4.50;;;2.13;;
23814;SDS011;12088;53.078;8.720;2023-11-22T13:02:50;2.83;;;1.77;;
23814;SDS011;12088;53.078;8.720;2023-11-22T13:05:16;2.23;;;1.80;;
23814;SDS011;12088;53.078;8.720;2023-11-22T13:07:44;2.30;;;1.83;;
23814;SDS011;12088;53.078;8.720;2023-11-22T13:10:10;2.93;;;2.40;;
23814;SDS011;12088;53.078;8.720;2023-11-22T13:12:35;3.70;;;3.20;;
23814;SDS011;12088;53.078;8.720;2023-11-22T13:15:01;2.93;;;2.27;;
23814;SDS011;12088;53.078;8.720;2023-11-22T13:17:29;3.83;;;2.10;;
23814;SDS011;12088;53.078;8.720;2023-11-22T13:19:55;3.20;;;2.20;;
23814;SDS011;12088;53.078;8.720;2023-11-22T13:22:21;3.57;;;2.27;;
23814;SDS011;12088;53.078;8.720;2023-11-22T13:24:47;2.30;;;2.10;;
23814;SDS011;12088;53.078;8.720;2023-11-22T13:27:13;2.80;;;2.47;;
23814;SDS011;12088;53.078;8.720;2023-11-22T13:29:39;2.97;;;2.30;;
23814;SDS011;12088;53.078;8.720;2023-11-22T13:32:05;2.97;;;2.00;;
23814;SDS011;12088;53.078;8.720;2023-11-22T13:34:32;2.30;;;1.90;;
23814;SDS011;12088;53.078;8.720;2023-11-22T13:36:59;2.53;;;2.20;;
23814;SDS011;12088;53.078;8.720;2023-11-22T13:39:25;2.83;;;2.63;;
23814;SDS011;12088;53.078;8.720;2023-11-22T13:41:51;3.57;;;1.97;;
23814;SDS011;12088;53.078;8.720;2023-11-22T13:44:17;2.10;;;1.90;;
23814;SDS011;12088;53.078;8.720;2023-11-22T13:46:44;2.80;;;2.27;;
23814;SDS011;12088;53.078;8.720;2023-11-22T13:49:10;2.77;;;2.33;;
23814;SDS011;12088;53.078;8.720;2023-11-22T13:51:36;2.50;;;2.23;;
23814;SDS011;12088;53.078;8.720;2023-11-22T13:54:02;2.67;;;2.10;;
23814;SDS011;12088;53.078;8.720;2023-11-22T13:56:28;2.47;;;2.10;;
23814;SDS011;12088;53.078;8.720;2023-11-22T13:58:54;2.60;;;2.07;;
23814;SDS011;12088;53.078;8.720;2023-11-22T14:01:20;4.47;;;2.10;;
23814;SDS011;12088;53.078;8.720;2023-11-22T14:03:46;3.47;;;2.80;;
23814;SDS011;12088;53.078;8.720;2023-11-22T14:06:13;2.57;;;2.23;;
23814;SDS011;12088;53.078;8.720;2023-11-22T14:08:41;4.33;;;3.97;;
23814;SDS011;12088;53.078;8.720;2023-11-22T14:11:08;4.17;;;2.63;;
23814;SDS011;12088;53.078;8.720;2023-11-22T14:13:34;3.33;;;2.33;;
23814;SDS011;12088;53.078;8.720;2023-11-22T14:16:00;3.03;;;2.50;;
23814;SDS011;12088;53.078;8.720;2023-11-22T14:18:26;5.20;;;3.13;;
23814;SDS011;12088;53.078;8.720;2023-11-22T14:20:52;4.00;;;2.77;;
23814;SDS011;12088;53.078;8.720;2023-11-22T14:23:19;4.27;;;3.07;;
23814;SDS011;12088;53.078;8.720;2023-11-22T14:25:45;4.30;;;2.93;;
23814;SDS011;12088;53.078;8.720;2023-11-22T14:28:11;3.13;;;2.60;;
23814;SDS011;12088;53.078;8.720;2023-11-22T14:30:38;3.73;;;2.60;;
23814;SDS011;12088;53.078;8.720;2023-11-22T14:33:06;5.20;;;2.50;;